Deanshanger, United Kingdom
Current Conditions -  °F | °C
As of 1:20 PM on Wednesday 22 Oct 2014 (Local Time) from EGTC Reporting Station
Few Clouds Few Clouds  
Wind Chill: 54°   Ceiling: Unl
Heat Index: 54°   Visibility: 6mi
Dew Point: 46°   Wind: 14mph
Humidity: 77%   Direction: 270°W
Pressure: 30.24"   Gusts: NA
Location:  52.05°N, 0.89°W
Report Text: EGTC 221220Z 27012KT 9999 FEW028 12/08 Q1024
Loading
Personal Weather Stations






























Interactive Weather Map New forecast layout! Learn more

10-Day Weather Forecast

Advertisements
Track Severe Weather on mobile